sensor_id;sensor_type;location;lat;lon;timestamp;temperature;humidity
59469;DHT22;45277;52.768;18.262;2023-04-25T00:00:36;11.10;99.90
59469;DHT22;45277;52.768;18.262;2023-04-25T00:02:25;11.10;99.90
59469;DHT22;45277;52.768;18.262;2023-04-25T00:03:57;11.10;99.90
59469;DHT22;45277;52.768;18.262;2023-04-25T00:05:28;11.10;99.90
59469;DHT22;45277;52.768;18.262;2023-04-25T00:07:00;11.10;99.90
59469;DHT22;45277;52.768;18.262;2023-04-25T00:08:36;11.00;99.90
59469;DHT22;45277;52.768;18.262;2023-04-25T00:10:08;11.00;99.90
59469;DHT22;45277;52.768;18.262;2023-04-25T00:11:40;11.00;99.90
59469;DHT22;45277;52.768;18.262;2023-04-25T00:13:12;11.10;99.90
59469;DHT22;45277;52.768;18.262;2023-04-25T00:14:44;11.10;99.90
59469;DHT22;45277;52.768;18.262;2023-04-25T00:16:16;11.10;99.90
59469;DHT22;45277;52.768;18.262;2023-04-25T00:17:48;11.10;99.90
59469;DHT22;45277;52.768;18.262;2023-04-25T00:19:20;11.10;99.90
59469;DHT22;45277;52.768;18.262;2023-04-25T00:20:51;11.00;99.90
59469;DHT22;45277;52.768;18.262;2023-04-25T00:22:23;11.00;99.90
59469;DHT22;45277;52.768;18.262;2023-04-25T00:23:55;11.00;99.90
59469;DHT22;45277;52.768;18.262;2023-04-25T00:25:26;11.00;99.90
59469;DHT22;45277;52.768;18.262;2023-04-25T00:26:58;11.10;99.90
59469;DHT22;45277;52.768;18.262;2023-04-25T00:28:30;11.20;99.90
59469;DHT22;45277;52.768;18.262;2023-04-25T00:30:01;11.10;99.90
59469;DHT22;45277;52.768;18.262;2023-04-25T00:31:33;11.10;99.90
59469;DHT22;45277;52.768;18.262;2023-04-25T00:33:05;11.10;99.90
59469;DHT22;45277;52.768;18.262;2023-04-25T00:34:36;11.10;99.90
59469;DHT22;45277;52.768;18.262;2023-04-25T00:36:08;11.10;99.90
59469;DHT22;45277;52.768;18.262;2023-04-25T00:37:40;11.00;99.90
59469;DHT22;45277;52.768;18.262;2023-04-25T00:39:12;11.00;99.90
59469;DHT22;45277;52.768;18.262;2023-04-25T00:40:44;10.90;99.90
59469;DHT22;45277;52.768;18.262;2023-04-25T00:42:16;10.80;99.90
59469;DHT22;45277;52.768;18.262;2023-04-25T00:43:48;10.80;99.90
59469;DHT22;45277;52.768;18.262;2023-04-25T00:45:21;10.80;99.90
59469;DHT22;45277;52.768;18.262;2023-04-25T00:46:52;10.70;99.90
59469;DHT22;45277;52.768;18.262;2023-04-25T00:48:24;10.80;99.90
59469;DHT22;45277;52.768;18.262;2023-04-25T00:49:56;10.80;99.90
59469;DHT22;45277;52.768;18.262;2023-04-25T00:51:27;10.70;99.90
59469;DHT22;45277;52.768;18.262;2023-04-25T00:52:59;10.70;99.90
59469;DHT22;45277;52.768;18.262;2023-04-25T00:54:32;10.60;99.90
59469;DHT22;45277;52.768;18.262;2023-04-25T00:56:05;10.50;99.90
59469;DHT22;45277;52.768;18.262;2023-04-25T00:57:37;10.50;99.90
59469;DHT22;45277;52.768;18.262;2023-04-25T00:59:09;10.50;99.90
59469;DHT22;45277;52.768;18.262;2023-04-25T01:03:22;10.30;99.90
59469;DHT22;45277;52.768;18.262;2023-04-25T01:04:55;10.30;99.90
59469;DHT22;45277;52.768;18.262;2023-04-25T01:06:26;10.20;99.90
59469;DHT22;45277;52.768;18.262;2023-04-25T01:07:58;10.20;99.90
59469;DHT22;45277;52.768;18.262;2023-04-25T01:09:31;10.20;99.90
59469;DHT22;45277;52.768;18.262;2023-04-25T01:11:05;10.20;99.90
59469;DHT22;45277;52.768;18.262;2023-04-25T01:12:37;10.20;99.90
59469;DHT22;45277;52.768;18.262;2023-04-25T01:14:09;10.20;99.90
59469;DHT22;45277;52.768;18.262;2023-04-25T01:15:40;10.20;99.90
59469;DHT22;45277;52.768;18.262;2023-04-25T01:17:11;10.10;99.90
59469;DHT22;45277;52.768;18.262;2023-04-25T01:18:43;10.10;99.90
59469;DHT22;45277;52.768;18.262;2023-04-25T01:20:16;10.20;99.90
59469;DHT22;45277;52.768;18.262;2023-04-25T01:21:47;10.10;99.90
59469;DHT22;45277;52.768;18.262;2023-04-25T01:23:23;10.10;99.90
59469;DHT22;45277;52.768;18.262;2023-04-25T01:24:54;10.10;99.90
59469;DHT22;45277;52.768;18.262;2023-04-25T01:26:26;10.10;99.90
59469;DHT22;45277;52.768;18.262;2023-04-25T01:27:58;10.00;99.90
59469;DHT22;45277;52.768;18.262;2023-04-25T01:29:31;10.00;99.90
59469;DHT22;45277;52.768;18.262;2023-04-25T01:31:03;10.00;99.90
59469;DHT22;45277;52.768;18.262;2023-04-25T01:32:37;9.90;99.90
59469;DHT22;45277;52.768;18.262;2023-04-25T01:34:12;9.90;99.90
59469;DHT22;45277;52.768;18.262;2023-04-25T01:35:43;10.00;99.90
59469;DHT22;45277;52.768;18.262;2023-04-25T01:37:16;9.90;99.90
59469;DHT22;45277;52.768;18.262;2023-04-25T01:38:47;9.80;99.90
59469;DHT22;45277;52.768;18.262;2023-04-25T01:40:21;9.90;99.90
59469;DHT22;45277;52.768;18.262;2023-04-25T01:41:53;9.80;99.90
59469;DHT22;45277;52.768;18.262;2023-04-25T01:43:25;9.80;99.90
59469;DHT22;45277;52.768;18.262;2023-04-25T01:44:57;9.80;99.90
59469;DHT22;45277;52.768;18.262;2023-04-25T01:46:29;9.80;99.90
59469;DHT22;45277;52.768;18.262;2023-04-25T01:48:01;9.80;99.90
59469;DHT22;45277;52.768;18.262;2023-04-25T01:49:33;9.70;99.90
59469;DHT22;45277;52.768;18.262;2023-04-25T01:51:04;9.70;99.90
59469;DHT22;45277;52.768;18.262;2023-04-25T01:52:36;9.60;99.90
59469;DHT22;45277;52.768;18.262;2023-04-25T01:54:08;9.70;99.90
59469;DHT22;45277;52.768;18.262;2023-04-25T01:55:41;9.70;99.90
59469;DHT22;45277;52.768;18.262;2023-04-25T01:57:13;9.60;99.90
59469;DHT22;45277;52.768;18.262;2023-04-25T01:58:45;9.60;99.90
59469;DHT22;45277;52.768;18.262;2023-04-25T02:00:17;9.60;99.90
59469;DHT22;45277;52.768;18.262;2023-04-25T02:01:48;9.60;99.90
59469;DHT22;45277;52.768;18.262;2023-04-25T02:03:19;9.60;99.90
59469;DHT22;45277;52.768;18.262;2023-04-25T02:04:51;9.60;99.90
59469;DHT22;45277;52.768;18.262;2023-04-25T02:06:22;9.60;99.90
59469;DHT22;45277;52.768;18.262;2023-04-25T02:07:54;9.60;99.90
59469;DHT22;45277;52.768;18.262;2023-04-25T02:09:26;9.60;99.90
59469;DHT22;45277;52.768;18.262;2023-04-25T02:10:58;9.50;99.90
59469;DHT22;45277;52.768;18.262;2023-04-25T02:12:31;9.40;99.90
59469;DHT22;45277;52.768;18.262;2023-04-25T02:14:03;9.40;99.90
59469;DHT22;45277;52.768;18.262;2023-04-25T02:15:34;9.30;99.90
59469;DHT22;45277;52.768;18.262;2023-04-25T02:17:05;9.30;99.90
59469;DHT22;45277;52.768;18.262;2023-04-25T02:18:37;9.30;99.90
59469;DHT22;45277;52.768;18.262;2023-04-25T02:20:09;9.20;99.90
59469;DHT22;45277;52.768;18.262;2023-04-25T02:21:40;9.20;99.90
59469;DHT22;45277;52.768;18.262;2023-04-25T02:23:12;9.20;99.90
59469;DHT22;45277;52.768;18.262;2023-04-25T02:24:44;9.10;99.90
59469;DHT22;45277;52.768;18.262;2023-04-25T02:26:15;9.10;99.90
59469;DHT22;45277;52.768;18.262;2023-04-25T02:27:48;9.10;99.90
59469;DHT22;45277;52.768;18.262;2023-04-25T02:29:19;9.00;99.90
59469;DHT22;45277;52.768;18.262;2023-04-25T02:30:50;9.00;99.90
59469;DHT22;45277;52.768;18.262;2023-04-25T02:32:22;8.90;99.90
59469;DHT22;45277;52.768;18.262;2023-04-25T02:33:53;8.90;99.90
59469;DHT22;45277;52.768;18.262;2023-04-25T02:35:24;8.80;99.90
59469;DHT22;45277;52.768;18.262;2023-04-25T02:36:56;8.80;99.90
59469;DHT22;45277;52.768;18.262;2023-04-25T02:38:27;8.80;99.90
59469;DHT22;45277;52.768;18.262;2023-04-25T02:39:59;8.70;99.90
59469;DHT22;45277;52.768;18.262;2023-04-25T02:41:30;8.70;99.90
59469;DHT22;45277;52.768;18.262;2023-04-25T02:43:02;8.60;99.90
59469;DHT22;45277;52.768;18.262;2023-04-25T02:44:33;8.60;99.90
59469;DHT22;45277;52.768;18.262;2023-04-25T02:46:05;8.60;99.90
59469;DHT22;45277;52.768;18.262;2023-04-25T02:47:36;8.60;99.90
59469;DHT22;45277;52.768;18.262;2023-04-25T02:49:07;8.50;99.90
59469;DHT22;45277;52.768;18.262;2023-04-25T02:50:39;8.50;99.90
59469;DHT22;45277;52.768;18.262;2023-04-25T02:52:11;8.50;99.90
59469;DHT22;45277;52.768;18.262;2023-04-25T02:53:42;8.50;99.90
59469;DHT22;45277;52.768;18.262;2023-04-25T02:55:14;8.50;99.90
59469;DHT22;45277;52.768;18.262;2023-04-25T02:56:45;8.40;99.90
59469;DHT22;45277;52.768;18.262;2023-04-25T02:58:16;8.50;99.90
59469;DHT22;45277;52.768;18.262;2023-04-25T02:59:48;8.40;99.90
59469;DHT22;45277;52.768;18.262;2023-04-25T03:01:20;8.40;99.90
59469;DHT22;45277;52.768;18.262;2023-04-25T03:02:51;8.40;99.90
59469;DHT22;45277;52.768;18.262;2023-04-25T03:04:23;8.40;99.90
59469;DHT22;45277;52.768;18.262;2023-04-25T03:05:54;8.30;99.90
59469;DHT22;45277;52.768;18.262;2023-04-25T03:07:26;8.30;99.90
59469;DHT22;45277;52.768;18.262;2023-04-25T03:08:57;8.30;99.90
59469;DHT22;45277;52.768;18.262;2023-04-25T03:10:29;8.30;99.90
59469;DHT22;45277;52.768;18.262;2023-04-25T03:12:00;8.30;99.90
59469;DHT22;45277;52.768;18.262;2023-04-25T03:13:32;8.20;99.90
59469;DHT22;45277;52.768;18.262;2023-04-25T03:15:04;8.30;99.90
59469;DHT22;45277;52.768;18.262;2023-04-25T03:16:36;8.30;99.90
59469;DHT22;45277;52.768;18.262;2023-04-25T03:18:08;8.30;99.90
59469;DHT22;45277;52.768;18.262;2023-04-25T03:19:39;8.30;99.90
59469;DHT22;45277;52.768;18.262;2023-04-25T03:21:10;8.30;99.90
59469;DHT22;45277;52.768;18.262;2023-04-25T03:22:42;8.30;99.90
59469;DHT22;45277;52.768;18.262;2023-04-25T03:24:13;8.30;99.90
59469;DHT22;45277;52.768;18.262;2023-04-25T03:25:44;8.30;99.90
59469;DHT22;45277;52.768;18.262;2023-04-25T03:27:17;8.30;99.90
59469;DHT22;45277;52.768;18.262;2023-04-25T03:28:48;8.30;99.90
59469;DHT22;45277;52.768;18.262;2023-04-25T03:30:19;8.30;99.90
59469;DHT22;45277;52.768;18.262;2023-04-25T03:31:51;8.30;99.90
59469;DHT22;45277;52.768;18.262;2023-04-25T03:33:23;8.30;99.90
59469;DHT22;45277;52.768;18.262;2023-04-25T03:34:54;8.20;99.90
59469;DHT22;45277;52.768;18.262;2023-04-25T03:36:26;8.20;99.90
59469;DHT22;45277;52.768;18.262;2023-04-25T03:37:58;8.10;99.90
59469;DHT22;45277;52.768;18.262;2023-04-25T03:39:29;8.10;99.90
59469;DHT22;45277;52.768;18.262;2023-04-25T03:41:01;8.10;99.90
59469;DHT22;45277;52.768;18.262;2023-04-25T03:42:33;8.10;99.90
59469;DHT22;45277;52.768;18.262;2023-04-25T03:44:04;8.10;99.90
59469;DHT22;45277;52.768;18.262;2023-04-25T03:45:35;8.00;99.90
59469;DHT22;45277;52.768;18.262;2023-04-25T03:47:07;8.00;99.90
59469;DHT22;45277;52.768;18.262;2023-04-25T03:48:38;7.90;99.90
59469;DHT22;45277;52.768;18.262;2023-04-25T03:50:10;7.90;99.90
59469;DHT22;45277;52.768;18.262;2023-04-25T03:51:41;7.90;99.90
59469;DHT22;45277;52.768;18.262;2023-04-25T03:53:12;8.00;99.90
59469;DHT22;45277;52.768;18.262;2023-04-25T03:54:44;7.90;99.90
59469;DHT22;45277;52.768;18.262;2023-04-25T03:56:15;7.90;99.90
59469;DHT22;45277;52.768;18.262;2023-04-25T03:57:46;7.90;99.90
59469;DHT22;45277;52.768;18.262;2023-04-25T03:59:18;7.90;99.90
59469;DHT22;45277;52.768;18.262;2023-04-25T04:00:49;8.00;99.90
59469;DHT22;45277;52.768;18.262;2023-04-25T04:02:21;8.00;99.90
59469;DHT22;45277;52.768;18.262;2023-04-25T04:03:53;8.10;99.90
59469;DHT22;45277;52.768;18.262;2023-04-25T04:05:24;8.10;99.90
59469;DHT22;45277;52.768;18.262;2023-04-25T04:06:55;8.10;99.90
59469;DHT22;45277;52.768;18.262;2023-04-25T04:08:27;8.20;99.90
59469;DHT22;45277;52.768;18.262;2023-04-25T04:09:58;8.20;99.90
59469;DHT22;45277;52.768;18.262;2023-04-25T04:11:29;8.20;99.90
59469;DHT22;45277;52.768;18.262;2023-04-25T04:13:02;8.20;99.90
59469;DHT22;45277;52.768;18.262;2023-04-25T04:14:33;8.20;99.90
59469;DHT22;45277;52.768;18.262;2023-04-25T04:16:05;8.20;99.90
59469;DHT22;45277;52.768;18.262;2023-04-25T04:17:37;8.20;99.90
59469;DHT22;45277;52.768;18.262;2023-04-25T04:19:08;8.30;99.90
59469;DHT22;45277;52.768;18.262;2023-04-25T04:20:39;8.30;99.90
59469;DHT22;45277;52.768;18.262;2023-04-25T04:22:11;8.30;99.90
59469;DHT22;45277;52.768;18.262;2023-04-25T04:23:42;8.30;99.90
59469;DHT22;45277;52.768;18.262;2023-04-25T04:25:13;8.40;99.90
59469;DHT22;45277;52.768;18.262;2023-04-25T04:26:45;8.40;99.90
59469;DHT22;45277;52.768;18.262;2023-04-25T04:28:16;8.40;99.90
59469;DHT22;45277;52.768;18.262;2023-04-25T04:29:49;8.50;99.90
59469;DHT22;45277;52.768;18.262;2023-04-25T04:31:21;8.60;99.90
59469;DHT22;45277;52.768;18.262;2023-04-25T04:32:53;8.70;99.90
59469;DHT22;45277;52.768;18.262;2023-04-25T04:34:24;8.70;99.90
59469;DHT22;45277;52.768;18.262;2023-04-25T04:35:57;8.70;99.90
59469;DHT22;45277;52.768;18.262;2023-04-25T04:37:28;8.70;99.90
59469;DHT22;45277;52.768;18.262;2023-04-25T04:38:59;8.70;99.90
59469;DHT22;45277;52.768;18.262;2023-04-25T04:40:31;8.70;99.90
59469;DHT22;45277;52.768;18.262;2023-04-25T04:42:03;8.70;99.90
59469;DHT22;45277;52.768;18.262;2023-04-25T04:43:35;8.60;99.90
59469;DHT22;45277;52.768;18.262;2023-04-25T04:45:08;8.60;99.90
59469;DHT22;45277;52.768;18.262;2023-04-25T04:46:41;8.60;99.90
59469;DHT22;45277;52.768;18.262;2023-04-25T04:48:16;8.60;99.90
59469;DHT22;45277;52.768;18.262;2023-04-25T04:49:47;8.50;99.90
59469;DHT22;45277;52.768;18.262;2023-04-25T04:51:19;8.50;99.90
59469;DHT22;45277;52.768;18.262;2023-04-25T04:52:51;8.50;99.90
59469;DHT22;45277;52.768;18.262;2023-04-25T04:54:23;8.60;99.90
59469;DHT22;45277;52.768;18.262;2023-04-25T04:55:54;8.60;99.90
59469;DHT22;45277;52.768;18.262;2023-04-25T04:57:26;8.60;99.90
59469;DHT22;45277;52.768;18.262;2023-04-25T04:58:58;8.60;99.90
59469;DHT22;45277;52.768;18.262;2023-04-25T05:00:29;8.60;99.90
59469;DHT22;45277;52.768;18.262;2023-04-25T05:02:01;8.70;99.90
59469;DHT22;45277;52.768;18.262;2023-04-25T05:03:33;8.70;99.90
59469;DHT22;45277;52.768;18.262;2023-04-25T05:05:05;8.70;99.90
59469;DHT22;45277;52.768;18.262;2023-04-25T05:06:36;8.80;99.90
59469;DHT22;45277;52.768;18.262;2023-04-25T05:08:08;8.90;99.90
59469;DHT22;45277;52.768;18.262;2023-04-25T05:09:39;8.90;99.90
59469;DHT22;45277;52.768;18.262;2023-04-25T05:11:11;8.80;99.90
59469;DHT22;45277;52.768;18.262;2023-04-25T05:12:42;8.90;99.90
59469;DHT22;45277;52.768;18.262;2023-04-25T05:14:14;8.90;99.90
59469;DHT22;45277;52.768;18.262;2023-04-25T05:15:45;8.90;99.90
59469;DHT22;45277;52.768;18.262;2023-04-25T05:17:17;9.00;99.90
59469;DHT22;45277;52.768;18.262;2023-04-25T05:18:48;9.00;99.90
59469;DHT22;45277;52.768;18.262;2023-04-25T05:20:19;9.10;99.90
59469;DHT22;45277;52.768;18.262;2023-04-25T05:21:51;9.10;99.90
59469;DHT22;45277;52.768;18.262;2023-04-25T05:23:23;9.10;99.90
59469;DHT22;45277;52.768;18.262;2023-04-25T05:24:54;9.20;99.90
59469;DHT22;45277;52.768;18.262;2023-04-25T05:26:26;9.20;99.90
59469;DHT22;45277;52.768;18.262;2023-04-25T05:28:01;9.30;99.90
59469;DHT22;45277;52.768;18.262;2023-04-25T05:29:33;9.30;99.90
59469;DHT22;45277;52.768;18.262;2023-04-25T05:31:04;9.30;99.90
59469;DHT22;45277;52.768;18.262;2023-04-25T05:32:36;9.40;99.90
59469;DHT22;45277;52.768;18.262;2023-04-25T05:34:07;9.40;99.90
59469;DHT22;45277;52.768;18.262;2023-04-25T05:35:39;9.50;99.90
59469;DHT22;45277;52.768;18.262;2023-04-25T05:37:11;9.50;99.90
59469;DHT22;45277;52.768;18.262;2023-04-25T05:38:42;9.50;99.90
59469;DHT22;45277;52.768;18.262;2023-04-25T05:40:14;9.60;99.90
59469;DHT22;45277;52.768;18.262;2023-04-25T05:41:46;9.60;99.90
59469;DHT22;45277;52.768;18.262;2023-04-25T05:43:17;9.60;99.90
59469;DHT22;45277;52.768;18.262;2023-04-25T05:44:49;9.70;99.90
59469;DHT22;45277;52.768;18.262;2023-04-25T05:46:20;9.70;99.90
59469;DHT22;45277;52.768;18.262;2023-04-25T05:47:51;9.60;99.90
59469;DHT22;45277;52.768;18.262;2023-04-25T05:49:23;9.60;99.90
59469;DHT22;45277;52.768;18.262;2023-04-25T05:50:55;9.60;99.90
59469;DHT22;45277;52.768;18.262;2023-04-25T05:52:26;9.60;99.90
59469;DHT22;45277;52.768;18.262;2023-04-25T05:53:58;9.60;99.90
59469;DHT22;45277;52.768;18.262;2023-04-25T05:55:29;9.60;99.90
59469;DHT22;45277;52.768;18.262;2023-04-25T05:57:00;9.60;99.90
59469;DHT22;45277;52.768;18.262;2023-04-25T05:58:33;9.70;99.90
59469;DHT22;45277;52.768;18.262;2023-04-25T06:00:06;9.80;99.90
59469;DHT22;45277;52.768;18.262;2023-04-25T06:01:40;9.90;99.90
59469;DHT22;45277;52.768;18.262;2023-04-25T06:03:14;9.90;99.90
59469;DHT22;45277;52.768;18.262;2023-04-25T06:04:46;9.90;99.90
59469;DHT22;45277;52.768;18.262;2023-04-25T06:06:17;9.90;99.90
59469;DHT22;45277;52.768;18.262;2023-04-25T06:07:49;9.90;99.90
59469;DHT22;45277;52.768;18.262;2023-04-25T06:09:20;9.90;99.90
59469;DHT22;45277;52.768;18.262;2023-04-25T06:10:52;9.80;99.90
59469;DHT22;45277;52.768;18.262;2023-04-25T06:12:24;9.80;99.90
59469;DHT22;45277;52.768;18.262;2023-04-25T06:13:55;9.80;99.90
59469;DHT22;45277;52.768;18.262;2023-04-25T06:15:26;9.80;99.90
59469;DHT22;45277;52.768;18.262;2023-04-25T06:16:58;9.80;99.90
59469;DHT22;45277;52.768;18.262;2023-04-25T06:18:30;9.80;99.90
59469;DHT22;45277;52.768;18.262;2023-04-25T06:20:02;9.80;99.90
59469;DHT22;45277;52.768;18.262;2023-04-25T06:21:35;9.70;99.90
59469;DHT22;45277;52.768;18.262;2023-04-25T06:23:06;9.80;99.90
59469;DHT22;45277;52.768;18.262;2023-04-25T06:24:37;9.80;99.90
59469;DHT22;45277;52.768;18.262;2023-04-25T06:26:09;9.80;99.90
59469;DHT22;45277;52.768;18.262;2023-04-25T06:27:40;9.70;99.90
59469;DHT22;45277;52.768;18.262;2023-04-25T06:29:12;9.70;99.90
59469;DHT22;45277;52.768;18.262;2023-04-25T06:30:43;9.80;99.90
59469;DHT22;45277;52.768;18.262;2023-04-25T06:32:15;9.80;99.90
59469;DHT22;45277;52.768;18.262;2023-04-25T06:33:46;9.90;99.90
59469;DHT22;45277;52.768;18.262;2023-04-25T06:35:19;10.00;99.90
59469;DHT22;45277;52.768;18.262;2023-04-25T06:36:51;10.00;99.90
59469;DHT22;45277;52.768;18.262;2023-04-25T06:38:22;10.00;99.90
59469;DHT22;45277;52.768;18.262;2023-04-25T06:39:53;10.00;99.90
59469;DHT22;45277;52.768;18.262;2023-04-25T06:41:25;10.00;99.90
59469;DHT22;45277;52.768;18.262;2023-04-25T06:42:56;10.00;99.90
59469;DHT22;45277;52.768;18.262;2023-04-25T06:44:28;10.10;99.90
59469;DHT22;45277;52.768;18.262;2023-04-25T06:46:00;10.20;99.90
59469;DHT22;45277;52.768;18.262;2023-04-25T06:47:32;10.40;99.90
59469;DHT22;45277;52.768;18.262;2023-04-25T06:49:03;10.50;99.90
59469;DHT22;45277;52.768;18.262;2023-04-25T06:50:34;10.70;99.90
59469;DHT22;45277;52.768;18.262;2023-04-25T06:52:07;10.80;99.90
59469;DHT22;45277;52.768;18.262;2023-04-25T06:53:39;10.80;99.90
59469;DHT22;45277;52.768;18.262;2023-04-25T06:55:11;10.80;99.90
59469;DHT22;45277;52.768;18.262;2023-04-25T06:56:42;10.90;99.90
59469;DHT22;45277;52.768;18.262;2023-04-25T06:58:14;11.00;99.90
59469;DHT22;45277;52.768;18.262;2023-04-25T06:59:45;11.10;99.90
59469;DHT22;45277;52.768;18.262;2023-04-25T07:01:17;11.20;99.90
59469;DHT22;45277;52.768;18.262;2023-04-25T07:02:48;11.20;99.90
59469;DHT22;45277;52.768;18.262;2023-04-25T07:04:19;11.40;99.90
59469;DHT22;45277;52.768;18.262;2023-04-25T07:05:51;11.40;99.90
59469;DHT22;45277;52.768;18.262;2023-04-25T07:07:23;11.40;99.90
59469;DHT22;45277;52.768;18.262;2023-04-25T07:08:54;11.30;99.90
59469;DHT22;45277;52.768;18.262;2023-04-25T07:10:26;11.20;99.90
59469;DHT22;45277;52.768;18.262;2023-04-25T07:11:58;11.20;99.90
59469;DHT22;45277;52.768;18.262;2023-04-25T07:13:30;11.20;99.90
59469;DHT22;45277;52.768;18.262;2023-04-25T07:15:01;11.40;99.90
59469;DHT22;45277;52.768;18.262;2023-04-25T07:16:37;11.50;99.90
59469;DHT22;45277;52.768;18.262;2023-04-25T07:18:08;11.60;99.90
59469;DHT22;45277;52.768;18.262;2023-04-25T07:19:40;11.60;99.90
59469;DHT22;45277;52.768;18.262;2023-04-25T07:21:11;11.80;99.90
59469;DHT22;45277;52.768;18.262;2023-04-25T07:22:42;11.80;99.90
59469;DHT22;45277;52.768;18.262;2023-04-25T07:24:14;11.90;99.90
59469;DHT22;45277;52.768;18.262;2023-04-25T07:25:46;11.90;99.90
59469;DHT22;45277;52.768;18.262;2023-04-25T07:27:18;11.70;99.90
59469;DHT22;45277;52.768;18.262;2023-04-25T07:28:49;11.70;99.90
59469;DHT22;45277;52.768;18.262;2023-04-25T07:30:22;11.60;99.90
59469;DHT22;45277;52.768;18.262;2023-04-25T07:31:54;11.50;99.90
59469;DHT22;45277;52.768;18.262;2023-04-25T07:33:25;11.40;99.90
59469;DHT22;45277;52.768;18.262;2023-04-25T07:34:57;11.60;99.90
59469;DHT22;45277;52.768;18.262;2023-04-25T07:36:28;11.80;99.90
59469;DHT22;45277;52.768;18.262;2023-04-25T07:37:59;11.90;99.90
59469;DHT22;45277;52.768;18.262;2023-04-25T07:39:31;11.90;99.90
59469;DHT22;45277;52.768;18.262;2023-04-25T07:41:02;11.90;99.90
59469;DHT22;45277;52.768;18.262;2023-04-25T07:42:33;11.80;99.90
59469;DHT22;45277;52.768;18.262;2023-04-25T07:44:05;11.60;99.90
59469;DHT22;45277;52.768;18.262;2023-04-25T07:45:36;11.50;99.90
59469;DHT22;45277;52.768;18.262;2023-04-25T07:47:09;11.40;99.90
59469;DHT22;45277;52.768;18.262;2023-04-25T07:48:40;11.40;99.90
59469;DHT22;45277;52.768;18.262;2023-04-25T07:50:12;11.50;99.90
59469;DHT22;45277;52.768;18.262;2023-04-25T07:51:43;11.70;99.90
59469;DHT22;45277;52.768;18.262;2023-04-25T07:53:16;11.80;99.90
59469;DHT22;45277;52.768;18.262;2023-04-25T07:54:49;11.80;99.90
59469;DHT22;45277;52.768;18.262;2023-04-25T07:56:20;11.80;99.90
59469;DHT22;45277;52.768;18.262;2023-04-25T07:57:53;11.70;99.90
59469;DHT22;45277;52.768;18.262;2023-04-25T07:59:24;11.70;99.90
59469;DHT22;45277;52.768;18.262;2023-04-25T08:00:56;11.60;99.90
59469;DHT22;45277;52.768;18.262;2023-04-25T08:02:27;11.60;99.90
59469;DHT22;45277;52.768;18.262;2023-04-25T08:03:59;11.50;99.90
59469;DHT22;45277;52.768;18.262;2023-04-25T08:05:30;11.50;99.90
59469;DHT22;45277;52.768;18.262;2023-04-25T08:07:02;11.60;99.90
59469;DHT22;45277;52.768;18.262;2023-04-25T08:08:33;11.60;99.90
59469;DHT22;45277;52.768;18.262;2023-04-25T08:10:06;11.50;99.90
59469;DHT22;45277;52.768;18.262;2023-04-25T08:11:38;11.40;99.90
59469;DHT22;45277;52.768;18.262;2023-04-25T08:13:09;11.30;99.90
59469;DHT22;45277;52.768;18.262;2023-04-25T08:14:41;11.20;99.90
59469;DHT22;45277;52.768;18.262;2023-04-25T08:16:12;11.30;99.90
59469;DHT22;45277;52.768;18.262;2023-04-25T08:17:44;11.60;99.90
59469;DHT22;45277;52.768;18.262;2023-04-25T08:19:15;11.90;99.90
59469;DHT22;45277;52.768;18.262;2023-04-25T08:20:47;12.20;99.90
59469;DHT22;45277;52.768;18.262;2023-04-25T08:22:18;12.40;74.50
59469;DHT22;45277;52.768;18.262;2023-04-25T08:23:50;12.70;64.80
59469;DHT22;45277;52.768;18.262;2023-04-25T08:25:21;12.70;55.60
59469;DHT22;45277;52.768;18.262;2023-04-25T08:26:53;12.60;62.10
59469;DHT22;45277;52.768;18.262;2023-04-25T08:28:25;12.50;85.60
59469;DHT22;45277;52.768;18.262;2023-04-25T08:29:57;12.40;91.40
59469;DHT22;45277;52.768;18.262;2023-04-25T08:31:29;12.30;96.30
59469;DHT22;45277;52.768;18.262;2023-04-25T08:33:01;12.30;98.90
59469;DHT22;45277;52.768;18.262;2023-04-25T08:34:32;12.30;87.00
59469;DHT22;45277;52.768;18.262;2023-04-25T08:36:04;12.20;84.10
59469;DHT22;45277;52.768;18.262;2023-04-25T08:37:35;12.20;91.20
59469;DHT22;45277;52.768;18.262;2023-04-25T08:39:07;12.20;77.10
59469;DHT22;45277;52.768;18.262;2023-04-25T08:40:39;12.10;89.40
59469;DHT22;45277;52.768;18.262;2023-04-25T08:42:12;11.90;90.30
59469;DHT22;45277;52.768;18.262;2023-04-25T08:43:44;11.80;99.90
59469;DHT22;45277;52.768;18.262;2023-04-25T08:45:15;11.70;99.90
59469;DHT22;45277;52.768;18.262;2023-04-25T08:46:47;11.70;99.90
59469;DHT22;45277;52.768;18.262;2023-04-25T08:48:21;11.60;99.90
59469;DHT22;45277;52.768;18.262;2023-04-25T08:49:56;11.60;99.90
59469;DHT22;45277;52.768;18.262;2023-04-25T08:51:30;11.60;99.90
59469;DHT22;45277;52.768;18.262;2023-04-25T08:53:04;11.40;99.90
59469;DHT22;45277;52.768;18.262;2023-04-25T08:54:43;11.40;99.90
59469;DHT22;45277;52.768;18.262;2023-04-25T08:56:16;11.50;99.90
59469;DHT22;45277;52.768;18.262;2023-04-25T08:57:54;11.70;99.90
59469;DHT22;45277;52.768;18.262;2023-04-25T08:59:26;11.90;99.90
59469;DHT22;45277;52.768;18.262;2023-04-25T09:00:59;12.10;98.50
59469;DHT22;45277;52.768;18.262;2023-04-25T09:02:31;12.20;94.90
59469;DHT22;45277;52.768;18.262;2023-04-25T09:04:03;12.30;92.90
59469;DHT22;45277;52.768;18.262;2023-04-25T09:05:34;12.40;65.40
59469;DHT22;45277;52.768;18.262;2023-04-25T09:07:06;12.50;65.50
59469;DHT22;45277;52.768;18.262;2023-04-25T09:08:38;12.70;74.10
59469;DHT22;45277;52.768;18.262;2023-04-25T09:10:11;12.90;48.70
59469;DHT22;45277;52.768;18.262;2023-04-25T09:11:42;13.10;55.20
59469;DHT22;45277;52.768;18.262;2023-04-25T09:13:20;13.30;63.10
59469;DHT22;45277;52.768;18.262;2023-04-25T09:15:06;13.50;51.90
59469;DHT22;45277;52.768;18.262;2023-04-25T09:16:59;13.70;32.70
59469;DHT22;45277;52.768;18.262;2023-04-25T09:18:32;13.70;37.50
59469;DHT22;45277;52.768;18.262;2023-04-25T09:20:08;13.70;35.00
59469;DHT22;45277;52.768;18.262;2023-04-25T09:21:40;13.70;24.60
59469;DHT22;45277;52.768;18.262;2023-04-25T09:23:12;13.70;21.70
59469;DHT22;45277;52.768;18.262;2023-04-25T09:24:44;13.70;27.40
59469;DHT22;45277;52.768;18.262;2023-04-25T09:26:19;13.50;21.60
59469;DHT22;45277;52.768;18.262;2023-04-25T09:27:54;13.40;14.00
59469;DHT22;45277;52.768;18.262;2023-04-25T09:29:34;13.30;15.20
59469;DHT22;45277;52.768;18.262;2023-04-25T09:31:05;13.00;22.50
59469;DHT22;45277;52.768;18.262;2023-04-25T09:32:37;12.90;31.90
59469;DHT22;45277;52.768;18.262;2023-04-25T09:34:08;12.70;36.80
59469;DHT22;45277;52.768;18.262;2023-04-25T09:35:44;12.50;51.90
59469;DHT22;45277;52.768;18.262;2023-04-25T09:37:24;12.30;71.20
59469;DHT22;45277;52.768;18.262;2023-04-25T09:38:55;12.20;73.50